createdAt,value
2022-12-26T00:00:54.897Z,95912.84
2022-12-26T00:03:22.300Z,95897.66
2022-12-26T00:05:49.459Z,95882.81
2022-12-26T00:08:16.647Z,95909.22
2022-12-26T00:10:43.554Z,95912.59
2022-12-26T00:13:38.169Z,95906.56
2022-12-26T00:15:57.568Z,95900.03
2022-12-26T00:18:24.494Z,95913.88
2022-12-26T00:20:51.508Z,95916.63
2022-12-26T00:23:18.404Z,95903.50
2022-12-26T00:25:45.300Z,95922.53
2022-12-26T00:28:12.471Z,95918.63
2022-12-26T00:30:39.411Z,95918.97
2022-12-26T00:33:06.508Z,95915.72
2022-12-26T00:35:33.460Z,95923.44
2022-12-26T00:38:00.728Z,95925.91
2022-12-26T00:40:28.009Z,95906.69
2022-12-26T00:42:54.893Z,95902.69
2022-12-26T00:45:22.165Z,95926.84
2022-12-26T00:47:49.064Z,95926.38
2022-12-26T00:50:16.581Z,95930.47
2022-12-26T00:52:43.684Z,95938.22
2022-12-26T00:55:10.876Z,95910.81
2022-12-26T00:57:37.878Z,95927.56
2022-12-26T01:00:05.869Z,95940.41
2022-12-26T01:02:39.051Z,95908.81
2022-12-26T01:05:11.210Z,95924.56
2022-12-26T01:08:20.225Z,95936.66
2022-12-26T01:10:28.213Z,95917.38
2022-12-26T01:12:55.169Z,95918.53
2022-12-26T01:15:22.219Z,95931.56
2022-12-26T01:17:49.116Z,95950.97
2022-12-26T01:20:16.894Z,95940.84
2022-12-26T01:22:43.881Z,95917.41
2022-12-26T01:25:12.203Z,95972.44
2022-12-26T01:27:39.653Z,95973.44
2022-12-26T01:30:07.511Z,95969.97
2022-12-26T01:32:34.414Z,95969.19
2022-12-26T01:35:01.291Z,95952.94
2022-12-26T01:37:28.339Z,95938.53
2022-12-26T01:39:55.571Z,95967.25
2022-12-26T01:42:25.305Z,95934.25
2022-12-26T01:45:02.568Z,95944.41
2022-12-26T01:48:08.310Z,95929.28
2022-12-26T01:51:02.974Z,95949.69
2022-12-26T01:53:34.514Z,95953.31
2022-12-26T01:56:06.865Z,95861.00
2022-12-26T01:58:39.734Z,95914.41
2022-12-26T02:01:08.648Z,95921.78
2022-12-26T02:04:00.053Z,95923.88
2022-12-26T02:06:27.718Z,95933.25
2022-12-26T02:08:55.026Z,95942.13
2022-12-26T02:11:27.749Z,95922.28
2022-12-26T02:13:55.016Z,95918.16
2022-12-26T02:16:22.177Z,95901.13
2022-12-26T02:18:49.114Z,95930.81
2022-12-26T02:22:18.359Z,95938.53
2022-12-26T02:25:07.706Z,95928.91
2022-12-26T02:27:46.867Z,95928.25
2022-12-26T02:30:41.468Z,95925.69
2022-12-26T02:33:47.705Z,95925.22
2022-12-26T02:36:22.585Z,95928.88
2022-12-26T02:38:52.625Z,95919.13
2022-12-26T02:41:49.283Z,95927.50
2022-12-26T02:44:39.848Z,95921.59
2022-12-26T02:47:09.587Z,95917.84
2022-12-26T02:50:02.629Z,95925.94
2022-12-26T02:53:20.751Z,95925.09
2022-12-26T02:56:11.703Z,95920.22
2022-12-26T02:59:03.324Z,95911.88
2022-12-26T03:01:58.339Z,95911.34
2022-12-26T03:04:49.241Z,95918.28
2022-12-26T03:07:40.821Z,95911.88
2022-12-26T03:10:43.058Z,95917.44
2022-12-26T03:13:17.105Z,95909.22
2022-12-26T03:16:20.749Z,95913.59
2022-12-26T03:18:57.813Z,95918.41
2022-12-26T03:21:31.618Z,95927.25
2022-12-26T03:23:58.636Z,95922.69
2022-12-26T03:26:40.991Z,95933.88
2022-12-26T03:29:36.511Z,95936.69
2022-12-26T03:32:07.152Z,95942.97
2022-12-26T03:34:37.616Z,95828.25
2022-12-26T03:37:16.756Z,95946.41
2022-12-26T03:40:02.277Z,95943.78
2022-12-26T03:42:55.463Z,95952.69
2022-12-26T03:46:24.346Z,95946.13
2022-12-26T03:49:26.233Z,95955.56
2022-12-26T03:52:28.596Z,95958.38
2022-12-26T03:55:39.236Z,95966.13
2022-12-26T03:58:51.029Z,95951.16
2022-12-26T04:01:44.203Z,95943.78
2022-12-26T04:04:33.787Z,95956.25
2022-12-26T04:07:25.084Z,95957.09
2022-12-26T04:10:22.871Z,95951.88
2022-12-26T04:13:10.569Z,95944.47
2022-12-26T04:16:15.047Z,95949.50
2022-12-26T04:19:26.367Z,95945.53
2022-12-26T04:22:55.655Z,95933.59
2022-12-26T04:25:53.449Z,95942.78
2022-12-26T04:28:40.631Z,95928.00
2022-12-26T04:31:33.169Z,95929.97
2022-12-26T04:34:23.247Z,95938.03
2022-12-26T04:37:15.238Z,95940.19
2022-12-26T04:40:06.885Z,95946.78
2022-12-26T04:42:53.924Z,95944.81
2022-12-26T04:45:22.774Z,95924.94
2022-12-26T04:48:09.780Z,95721.44
2022-12-26T04:50:36.934Z,95935.97
2022-12-26T04:53:04.010Z,95929.56
2022-12-26T04:55:33.394Z,95960.63
2022-12-26T04:58:00.612Z,95941.41
2022-12-26T05:00:28.888Z,95955.44
2022-12-26T05:03:19.092Z,95957.88
2022-12-26T05:06:08.466Z,95937.31
2022-12-26T05:09:05.019Z,95944.41
2022-12-26T05:11:34.349Z,95905.41
2022-12-26T05:14:01.665Z,95952.47
2022-12-26T05:16:48.355Z,95975.75
2022-12-26T05:19:36.582Z,95934.72
2022-12-26T05:22:23.868Z,95970.22
2022-12-26T05:25:10.948Z,95984.34
2022-12-26T05:28:01.046Z,95983.38
2022-12-26T05:30:28.865Z,95988.00
2022-12-26T05:33:14.936Z,95993.75
2022-12-26T05:35:42.471Z,95985.22
2022-12-26T05:38:11.055Z,95994.88
2022-12-26T05:40:38.360Z,95994.88
2022-12-26T05:43:05.249Z,95980.38
2022-12-26T05:45:32.662Z,95976.31
2022-12-26T05:48:00.728Z,95995.88
2022-12-26T05:50:28.879Z,95990.09
2022-12-26T05:52:59.793Z,95986.03
2022-12-26T05:55:27.056Z,95982.84
2022-12-26T05:57:54.271Z,95981.75
2022-12-26T06:00:21.401Z,95977.03
2022-12-26T06:02:48.885Z,95979.13
2022-12-26T06:05:16.160Z,95932.63
2022-12-26T06:07:45.031Z,95984.38
2022-12-26T06:10:12.688Z,95995.38
2022-12-26T06:12:41.013Z,95983.94
2022-12-26T06:15:08.489Z,95982.63
2022-12-26T06:17:35.751Z,95997.06
2022-12-26T06:20:02.689Z,95989.81
2022-12-26T06:22:30.442Z,95984.88
2022-12-26T06:24:57.699Z,95999.66
2022-12-26T06:27:24.783Z,95982.13
2022-12-26T06:29:51.793Z,95978.84
2022-12-26T06:32:18.753Z,95962.09
2022-12-26T06:34:45.671Z,96001.34
2022-12-26T06:37:12.612Z,96019.41
2022-12-26T06:39:39.604Z,96007.41
2022-12-26T06:42:06.777Z,96005.91
2022-12-26T06:44:33.754Z,96006.06
2022-12-26T06:47:00.905Z,96010.84
2022-12-26T06:49:32.731Z,96007.06
2022-12-26T06:52:00.448Z,96006.41
2022-12-26T06:54:27.464Z,96015.47
2022-12-26T06:56:54.350Z,96026.59
2022-12-26T06:59:21.605Z,96020.50
2022-12-26T07:01:49.254Z,96015.56
2022-12-26T07:04:16.527Z,96029.19
2022-12-26T07:06:43.590Z,96019.28
2022-12-26T07:09:17.266Z,96032.63
2022-12-26T07:11:47.294Z,95989.22
2022-12-26T07:14:14.850Z,96037.84
2022-12-26T07:16:45.318Z,96041.78
2022-12-26T07:19:13.957Z,96047.19
2022-12-26T07:21:41.512Z,96042.72
2022-12-26T07:24:15.684Z,96047.97
2022-12-26T07:26:43.521Z,96029.84
2022-12-26T07:29:12.025Z,96030.97
2022-12-26T07:31:40.264Z,96041.47
2022-12-26T07:34:07.815Z,96026.44
2022-12-26T07:36:35.031Z,96036.25
2022-12-26T07:39:02.040Z,96002.72
2022-12-26T07:41:49.181Z,96032.53
2022-12-26T07:44:16.420Z,96015.06
2022-12-26T07:46:43.940Z,96011.56
2022-12-26T07:49:12.390Z,96038.00
2022-12-26T07:51:39.689Z,96030.81
2022-12-26T07:54:11.083Z,95985.34
2022-12-26T07:56:40.309Z,96032.19
2022-12-26T07:59:08.390Z,96025.09
2022-12-26T08:01:35.682Z,96017.28
2022-12-26T08:04:02.860Z,96017.94
2022-12-26T08:06:30.013Z,96024.13
2022-12-26T08:08:58.447Z,96001.44
2022-12-26T08:11:25.999Z,96017.03
2022-12-26T08:13:53.179Z,96003.72
2022-12-26T08:16:20.872Z,96006.00
2022-12-26T08:18:47.937Z,96015.66
2022-12-26T08:21:15.543Z,96014.88
2022-12-26T08:23:42.579Z,95990.88
2022-12-26T08:26:13.072Z,96034.28
2022-12-26T08:28:42.169Z,96021.06
2022-12-26T08:31:10.889Z,96027.09
2022-12-26T08:33:37.986Z,96038.09
2022-12-26T08:36:10.951Z,96035.91
2022-12-26T08:38:39.503Z,96031.25
2022-12-26T08:41:06.783Z,96037.06
2022-12-26T08:44:03.527Z,96032.59
2022-12-26T08:46:22.484Z,96021.66
2022-12-26T08:48:51.088Z,96008.22
2022-12-26T08:51:23.789Z,96022.31
2022-12-26T08:53:52.464Z,96019.09
2022-12-26T08:56:22.255Z,95980.56
2022-12-26T08:58:49.720Z,96010.91
2022-12-26T09:01:23.185Z,96018.84
2022-12-26T09:03:57.999Z,96005.97
2022-12-26T09:06:26.041Z,96009.75
2022-12-26T09:08:53.527Z,96000.00
2022-12-26T09:11:28.780Z,96002.28
2022-12-26T09:13:58.510Z,96010.72
2022-12-26T09:16:30.460Z,96011.53
2022-12-26T09:19:02.205Z,95999.75
2022-12-26T09:21:29.608Z,96006.97
2022-12-26T09:24:02.786Z,95995.03
2022-12-26T09:26:30.351Z,95994.47
2022-12-26T09:28:58.016Z,96006.78
2022-12-26T09:31:28.102Z,96004.81
2022-12-26T09:33:55.850Z,95971.38
2022-12-26T09:36:25.886Z,95940.31
2022-12-26T09:38:55.173Z,95971.44
2022-12-26T09:41:28.052Z,95992.38
2022-12-26T09:44:16.714Z,95987.50
2022-12-26T09:46:56.043Z,95992.88
2022-12-26T09:49:30.534Z,95791.56
2022-12-26T09:52:01.829Z,95982.19
2022-12-26T09:54:41.114Z,95977.72
2022-12-26T09:57:16.581Z,95964.88
2022-12-26T09:59:49.973Z,95981.28
2022-12-26T10:02:24.008Z,95976.69
2022-12-26T10:04:53.921Z,95953.41
2022-12-26T10:07:54.831Z,95967.97
2022-12-26T10:10:24.933Z,95960.66
2022-12-26T10:13:11.649Z,95962.97
2022-12-26T10:15:44.627Z,95931.91
2022-12-26T10:18:20.726Z,95957.72
2022-12-26T10:21:06.035Z,95881.06
2022-12-26T10:23:41.041Z,95948.97
2022-12-26T10:26:18.171Z,95937.34
2022-12-26T10:29:08.452Z,95933.06
2022-12-26T10:31:45.091Z,95922.25
2022-12-26T10:34:20.626Z,95939.22
2022-12-26T10:36:51.365Z,95930.00
2022-12-26T10:39:22.241Z,95929.41
2022-12-26T10:41:56.863Z,95923.50
2022-12-26T10:44:27.844Z,95923.50
2022-12-26T10:47:07.901Z,95914.50
2022-12-26T10:49:36.163Z,95922.28
2022-12-26T10:52:03.898Z,95922.47
2022-12-26T10:54:31.576Z,95901.22
2022-12-26T10:56:59.338Z,95916.97
2022-12-26T11:00:03.101Z,95884.25
2022-12-26T11:02:32.812Z,95910.00
2022-12-26T11:05:16.000Z,95908.91
2022-12-26T11:08:07.649Z,95910.34
2022-12-26T11:10:35.037Z,95900.53
2022-12-26T11:13:07.450Z,95891.34
2022-12-26T11:15:49.920Z,95892.53
2022-12-26T11:18:54.295Z,95891.28
2022-12-26T11:21:25.846Z,95885.50
2022-12-26T11:24:08.607Z,95882.84
2022-12-26T11:26:37.197Z,95849.56
2022-12-26T11:29:10.550Z,95859.75
2022-12-26T11:31:39.626Z,95866.03
2022-12-26T11:34:13.929Z,95869.03
2022-12-26T11:36:47.581Z,95854.28
2022-12-26T11:39:31.853Z,95878.94
2022-12-26T11:41:59.143Z,95858.38
2022-12-26T11:44:33.272Z,95844.06
2022-12-26T11:47:01.881Z,95863.22
2022-12-26T11:49:36.409Z,95856.38
2022-12-26T11:52:41.907Z,95850.97
2022-12-26T11:55:27.301Z,95853.66
2022-12-26T11:58:06.709Z,95855.50
2022-12-26T12:00:42.166Z,95830.59
2022-12-26T12:03:26.553Z,95847.25
2022-12-26T12:06:27.155Z,95840.84
2022-12-26T12:09:15.847Z,95836.50
2022-12-26T12:12:16.997Z,95826.44
2022-12-26T12:15:22.931Z,95825.41
2022-12-26T12:18:11.463Z,95831.19
2022-12-26T12:20:56.964Z,95830.28
2022-12-26T12:23:23.914Z,95833.13
2022-12-26T12:26:23.107Z,95829.97
2022-12-26T12:29:05.009Z,95828.31
2022-12-26T12:31:41.095Z,95829.91
2022-12-26T12:34:34.577Z,95825.31
2022-12-26T12:37:25.352Z,95768.16
2022-12-26T12:39:58.530Z,95827.38
2022-12-26T12:42:45.506Z,95832.19
2022-12-26T12:45:18.431Z,95826.19
2022-12-26T12:48:14.579Z,95824.06
2022-12-26T12:51:14.375Z,95830.81
2022-12-26T12:53:41.155Z,95829.78
2022-12-26T12:56:28.239Z,95818.31
2022-12-26T12:58:55.492Z,95830.63
2022-12-26T13:01:28.309Z,95813.22
2022-12-26T13:04:09.440Z,95823.03
2022-12-26T13:06:43.891Z,95821.69
2022-12-26T13:09:17.353Z,95824.13
2022-12-26T13:11:56.661Z,95820.66
2022-12-26T13:14:25.940Z,95828.88
2022-12-26T13:17:00.541Z,95817.47
2022-12-26T13:19:41.897Z,95825.19
2022-12-26T13:22:21.313Z,95831.53
2022-12-26T13:24:56.922Z,95803.13
2022-12-26T13:27:38.196Z,95817.59
2022-12-26T13:30:17.003Z,95802.06
2022-12-26T13:32:46.725Z,95813.84
2022-12-26T13:35:53.667Z,95818.75
2022-12-26T13:38:22.449Z,95819.31
2022-12-26T13:41:22.819Z,95810.56
2022-12-26T13:44:06.663Z,95816.28
2022-12-26T13:46:36.608Z,95819.19
2022-12-26T13:49:04.167Z,95811.00
2022-12-26T13:51:42.960Z,95821.03
2022-12-26T13:54:12.913Z,95793.38
2022-12-26T13:56:45.675Z,95813.47
2022-12-26T13:59:13.089Z,95831.09
2022-12-26T14:02:01.411Z,95799.66
2022-12-26T14:04:52.723Z,95820.22
2022-12-26T14:07:28.638Z,95818.59
2022-12-26T14:10:04.385Z,95820.22
2022-12-26T14:12:43.485Z,95816.72
2022-12-26T14:15:31.772Z,95817.75
2022-12-26T14:18:29.928Z,95814.13
2022-12-26T14:21:16.830Z,95812.53
2022-12-26T14:24:18.418Z,95822.63
2022-12-26T14:26:49.173Z,95815.59
2022-12-26T14:29:19.573Z,95831.53
2022-12-26T14:32:32.117Z,95824.72
2022-12-26T14:35:23.692Z,95826.34
2022-12-26T14:38:28.267Z,95819.00
2022-12-26T14:41:34.172Z,95825.41
2022-12-26T14:44:15.849Z,95828.97
2022-12-26T14:46:42.906Z,95835.97
2022-12-26T14:49:37.311Z,95831.56
2022-12-26T14:52:23.311Z,95829.34
2022-12-26T14:54:54.215Z,95814.97
2022-12-26T14:57:47.577Z,95835.25
2022-12-26T15:00:24.190Z,95841.06
2022-12-26T15:03:01.738Z,95833.34
2022-12-26T15:05:38.470Z,95822.38
2022-12-26T15:08:14.256Z,95829.56
2022-12-26T15:10:50.421Z,95821.84
2022-12-26T15:13:36.228Z,95817.56
2022-12-26T15:16:18.687Z,95808.00
2022-12-26T15:19:07.143Z,95803.16
2022-12-26T15:21:43.006Z,95791.72
2022-12-26T15:25:16.893Z,95803.88
2022-12-26T15:28:15.252Z,95803.94
2022-12-26T15:31:20.560Z,95814.59
2022-12-26T15:34:03.028Z,95808.47
2022-12-26T15:36:41.077Z,95803.41
2022-12-26T15:39:21.997Z,95804.47
2022-12-26T15:42:22.908Z,95810.41
2022-12-26T15:45:08.645Z,95824.31
2022-12-26T15:47:49.025Z,95818.81
2022-12-26T15:50:21.920Z,95820.25
2022-12-26T15:53:09.972Z,95793.34
2022-12-26T15:55:46.425Z,95818.44
2022-12-26T15:58:51.060Z,95819.88
2022-12-26T16:01:39.234Z,95812.97
2022-12-26T16:04:13.705Z,95813.78
2022-12-26T16:06:56.285Z,95830.31
2022-12-26T16:09:32.389Z,95825.66
2022-12-26T16:12:00.841Z,95830.94
2022-12-26T16:14:27.837Z,95834.22
2022-12-26T16:16:55.502Z,95839.31
2022-12-26T16:19:27.749Z,95816.44
2022-12-26T16:22:21.427Z,95812.78
2022-12-26T16:24:51.649Z,95830.97
2022-12-26T16:27:22.536Z,95826.66
2022-12-26T16:29:56.060Z,95805.59
2022-12-26T16:32:47.204Z,95837.66
2022-12-26T16:35:22.343Z,95827.66
2022-12-26T16:37:50.843Z,95807.44
2022-12-26T16:40:23.762Z,95791.69
2022-12-26T16:43:31.247Z,95826.00
2022-12-26T16:46:02.755Z,95811.72
2022-12-26T16:48:32.496Z,95846.41
2022-12-26T16:51:06.435Z,95827.59
2022-12-26T16:53:36.376Z,95850.69
2022-12-26T16:56:33.218Z,95845.56
2022-12-26T16:59:17.096Z,95854.34
2022-12-26T17:01:56.009Z,95840.00
2022-12-26T17:04:25.788Z,95856.97
2022-12-26T17:07:02.774Z,95859.41
2022-12-26T17:09:41.629Z,95857.53
2022-12-26T17:12:20.415Z,95854.25
2022-12-26T17:14:49.907Z,95855.47
2022-12-26T17:17:22.956Z,95861.41
2022-12-26T17:19:54.197Z,95863.66
2022-12-26T17:22:27.902Z,95867.31
2022-12-26T17:25:17.380Z,95866.28
2022-12-26T17:27:45.628Z,95845.84
2022-12-26T17:30:30.649Z,95861.34
2022-12-26T17:33:11.005Z,95867.09
2022-12-26T17:36:33.008Z,95854.22
2022-12-26T17:38:28.138Z,95862.38
2022-12-26T17:40:58.455Z,95867.28
2022-12-26T17:43:31.449Z,95853.53
2022-12-26T17:45:58.554Z,95873.16
2022-12-26T17:48:25.687Z,95862.50
2022-12-26T17:51:00.270Z,95827.34
2022-12-26T17:53:33.285Z,95793.00
2022-12-26T17:56:22.782Z,95853.72
2022-12-26T17:58:50.533Z,95839.59
2022-12-26T18:01:21.530Z,95832.06
2022-12-26T18:03:50.086Z,95818.78
2022-12-26T18:06:18.000Z,95814.66
2022-12-26T18:08:45.242Z,95835.09
2022-12-26T18:11:14.242Z,95834.47
2022-12-26T18:13:42.185Z,95830.75
2022-12-26T18:16:15.515Z,95831.59
2022-12-26T18:18:47.391Z,95812.34
2022-12-26T18:21:15.910Z,95821.31
2022-12-26T18:23:43.556Z,95823.34
2022-12-26T18:26:24.880Z,95833.94
2022-12-26T18:28:52.233Z,95770.78
2022-12-26T18:31:20.719Z,95819.06
2022-12-26T18:33:47.809Z,95810.25
2022-12-26T18:36:16.461Z,95811.28
2022-12-26T18:38:44.326Z,95816.56
2022-12-26T18:41:16.558Z,95812.84
2022-12-26T18:43:43.747Z,95779.34
2022-12-26T18:46:30.150Z,95802.88
2022-12-26T18:48:57.863Z,95797.75
2022-12-26T18:51:26.042Z,95813.03
2022-12-26T18:53:53.277Z,95810.00
2022-12-26T18:56:22.573Z,95810.19
2022-12-26T18:58:57.121Z,95812.22
2022-12-26T19:01:25.200Z,95754.16
2022-12-26T19:03:53.955Z,95815.22
2022-12-26T19:06:27.331Z,95795.41
2022-12-26T19:08:54.868Z,95807.06
2022-12-26T19:11:22.041Z,95807.06
2022-12-26T19:13:49.111Z,95800.91
2022-12-26T19:16:16.668Z,95815.81
2022-12-26T19:18:43.592Z,95806.19
2022-12-26T19:21:12.789Z,95805.19
2022-12-26T19:23:40.336Z,95810.66
2022-12-26T19:26:16.588Z,95793.88
2022-12-26T19:28:43.844Z,95786.72
2022-12-26T19:31:13.420Z,95780.16
2022-12-26T19:33:40.920Z,95776.63
2022-12-26T19:36:08.577Z,95794.44
2022-12-26T19:38:35.794Z,95801.19
2022-12-26T19:41:09.228Z,95805.25
2022-12-26T19:43:37.207Z,95798.88
2022-12-26T19:46:07.198Z,95791.13
2022-12-26T19:48:35.465Z,95760.44
2022-12-26T19:51:07.909Z,95815.94
2022-12-26T19:53:36.387Z,95807.56
2022-12-26T19:56:10.940Z,95797.97
2022-12-26T19:58:38.157Z,95807.16
2022-12-26T20:01:10.685Z,95794.88
2022-12-26T20:03:37.904Z,95823.41
2022-12-26T20:06:16.140Z,95808.47
2022-12-26T20:08:44.564Z,95817.66
2022-12-26T20:11:20.520Z,95820.88
2022-12-26T20:13:48.848Z,95817.22
2022-12-26T20:16:45.925Z,95818.00
2022-12-26T20:19:05.880Z,95820.38
2022-12-26T20:21:33.216Z,95817.75
2022-12-26T20:24:01.875Z,95819.75
2022-12-26T20:29:14.390Z,95810.41
2022-12-26T20:31:42.733Z,95802.75
2022-12-26T20:34:11.420Z,95807.66
2022-12-26T20:36:38.977Z,95816.69
2022-12-26T20:39:10.462Z,95779.84
2022-12-26T20:41:37.791Z,95810.31
2022-12-26T20:44:04.880Z,95800.06
2022-12-26T20:46:33.426Z,95805.41
2022-12-26T20:49:05.323Z,95797.84
2022-12-26T20:51:37.962Z,95796.22
2022-12-26T20:54:07.391Z,95777.78
2022-12-26T20:56:36.206Z,95795.78
2022-12-26T20:59:03.954Z,95804.53
2022-12-26T21:01:31.441Z,95801.44
2022-12-26T21:03:58.734Z,95806.47
2022-12-26T21:06:31.923Z,95787.09
2022-12-26T21:08:59.590Z,95808.09
2022-12-26T21:11:29.353Z,95792.81
2022-12-26T21:14:00.397Z,95749.63
2022-12-26T21:16:38.043Z,95787.00
2022-12-26T21:19:12.315Z,95791.69
2022-12-26T21:21:44.402Z,95777.94
2022-12-26T21:24:16.201Z,95803.75
2022-12-26T21:26:44.742Z,95802.69
2022-12-26T21:29:15.970Z,95796.75
2022-12-26T21:31:43.246Z,95798.53
2022-12-26T21:34:12.776Z,95810.78
2022-12-26T21:36:40.770Z,95809.97
2022-12-26T21:39:10.235Z,95799.97
2022-12-26T21:41:37.862Z,95788.13
2022-12-26T21:44:05.057Z,95797.53
2022-12-26T21:46:32.271Z,95800.53
2022-12-26T21:49:00.769Z,95798.44
2022-12-26T21:51:28.918Z,95796.44
2022-12-26T21:54:15.768Z,95790.50
2022-12-26T21:56:42.908Z,95783.16
2022-12-26T21:59:28.471Z,95800.06
2022-12-26T22:01:55.622Z,95790.25
2022-12-26T22:04:23.792Z,95793.63
2022-12-26T22:06:51.656Z,95793.53
2022-12-26T22:09:18.966Z,95779.19
2022-12-26T22:12:05.334Z,95801.38
2022-12-26T22:14:32.268Z,95782.56
2022-12-26T22:16:59.488Z,95804.97
2022-12-26T22:19:26.439Z,95778.75
2022-12-26T22:21:54.650Z,95797.69
2022-12-26T22:24:22.209Z,95779.88
2022-12-26T22:26:49.577Z,95802.22
2022-12-26T22:29:17.096Z,95785.69
2022-12-26T22:32:03.980Z,95779.13
2022-12-26T22:34:30.971Z,95788.31
2022-12-26T22:36:58.248Z,95791.59
2022-12-26T22:39:25.506Z,95803.06
2022-12-26T22:41:55.203Z,95799.78
2022-12-26T22:44:28.781Z,95780.41
2022-12-26T22:46:57.840Z,95793.59
2022-12-26T22:49:24.794Z,95764.22
2022-12-26T22:51:51.749Z,95767.75
2022-12-26T22:54:18.700Z,95780.41
2022-12-26T22:56:45.740Z,95776.84
2022-12-26T22:59:22.565Z,95806.88
2022-12-26T23:01:59.956Z,95790.03
2022-12-26T23:04:30.638Z,95790.22
2022-12-26T23:06:58.862Z,95798.59
2022-12-26T23:09:26.135Z,95773.69
2022-12-26T23:12:12.277Z,95795.06
2022-12-26T23:14:39.552Z,95805.00
2022-12-26T23:17:12.091Z,95790.63
2022-12-26T23:20:10.421Z,95788.88
2022-12-26T23:22:37.679Z,95778.06
2022-12-26T23:25:04.881Z,95778.06
2022-12-26T23:27:50.339Z,95789.97
2022-12-26T23:30:20.146Z,95747.84
2022-12-26T23:32:51.987Z,95768.13
2022-12-26T23:35:20.439Z,95775.69
2022-12-26T23:37:47.350Z,95774.69
2022-12-26T23:40:16.039Z,95777.69
2022-12-26T23:42:43.307Z,95759.13
2022-12-26T23:45:12.367Z,95764.47
2022-12-26T23:47:41.114Z,95723.81
2022-12-26T23:50:10.365Z,95767.94
2022-12-26T23:52:37.693Z,95739.72
2022-12-26T23:55:05.525Z,95753.03
2022-12-26T23:57:32.660Z,95757.94
2022-12-26T23:59:59.567Z,95752.56
